METAR Data
IDs: Format: Raw Decoded Include TAF

Data at: 0631 UTC 03 Aug 2021

EPRZ 030600Z 22005KT 190V260 CAVOK 17/12 Q1017